KGGG

East Texas Regional Airport

Longview, Texas, USA
METAR KGGG 201753Z 36008KT 10SM OVC008 17/16 A3019 RMK AO2 SLP220 60000 T01720156 10172 20150 58000
Observed Flight Rules
Oct-20 @ 17:53 UTC (8 minutes ago) Instrument Flight Rules
Wind Visibility Clouds
360° at 8 knots 10 miles
  • Overcast at 800' AGL
Temperatures Readings
Current 17°C / 63°F
Dewpoint 16°C / 61°F
Humidity 94%
Altimeter 30.19" Hg
Pressure 1022 hPa
Elevation 107
METAR KGGG 201753Z 36008KT 10SM OVC008 17/16 A3019 RMK AO2 SLP220 60000 T01720156 10172 20150 58000
Observed Flight Rules
Oct-20 @ 17:53 UTC
(8 minutes ago)
IFR
Wind Visibility
360° at 8 knots 10 miles
Clouds
  • Overcast at 800' AGL
Temperature Dewpoint
17°C / 63°F 16°C / 61°F
Humidity Altimeter Pressure
94% 30.19" Hg 1022 hPa